Scroll down
FLIGHT INFORMATION
SAS Scandinavian Airlines

SAS4406

At Arrival Gate

ENGM
 ENTC
DATE: 2019-11-14
GATE: 22
GATE DEPARTURE: 06:35
TAKEOFF: 06:54
DATE: 2019-11-14
GATE: 22
LANDING: 08:31
GATE ARRIVAL: 08:36
FLIGHT DATA
Crew: KYLE RODGERS
Speed: 447 kts Altitude: 35000 ft
Stage Length: 602 nm
Route: 
Block Time: 2 Flight Time: 1.6
Fuel Used: 10589 LB
TRACK DATA
50000 FT1000 KT
AIRCRAFT INFORMATION
Aircraft Type: B738
Registration: LN-RCN
SELCAL:  MSN/LN: 28318 / 529
Operator: SAS SCANDINAVIAN AIRLINES
Flights: 11 Block Time: 17.7 Flight Time: 14.5
Fuel Used: 93415 LB
  • DEPARTURE INFORMATION
    Date: 2019-11-14
    Airport: ENGM
    Gate: 22
    Gate Departure: 06:35
    Takeoff: 06:54
    ARRIVAL INFORMATION
    Date: 2019-11-14
    Airport: ENTC
    Gate: 22
    Landing: 08:31
    Gate Arrival: 08:36
  • FLIGHT DATA
    Crew: KYLE RODGERS
    Speed: 447 kts Altitude: 35000 ft
    Stage Length: 325 nm
    Route: 
    Block Time: 2 Flight Time: 1.6
    Fuel Used: 10589 LB
  • AIRCRAFT INFORMATION
    Aircraft Type: B738
    Registration: LN-RCN
    SELCAL:  MSN/LN: 28318 / 529
    Operator: SAS Scandinavian Airlines
    Flights: 11 Block Time: 17.7 Flight Time: 14.5
    Fuel Used: 93415 LB

DATALINK LOG | Newest first | Current as of: 2020-09-28 18:45:12
LABEL SEQUENCE CONTENT Dn/Up
QD360508:36 10.8▼ Dn
QC323708:31▼ Dn
2U3749ENTC 140720Z 14002KT 9999 FEW030 SCT070 M06/M07 Q1004 NOSIG RMK WIND 2600FT VRB03KT▲ Up
2S3718ENTC▼ Dn
GA3648GATE 22▲ Up
GR3609ENTC --:-- YP/UM 01/00 WCHR/S/C 00/00/00▼ Dn
QB553406:54▼ Dn
QA365706:35 21.5▼ Dn
A32346CLEARED TO ENTC VIA RIBE1A RIBBE Z125 SOMUB Z101 GUBAV Z156 AMIMO AMIM7Y. SQUAWK 5372.▲ Up
B32326ENGM ENTC SAS4406 LN-RCN V ▼ Dn
2U2336ENGM 140620Z 04003KT 360V060 5000 BR OVC007 01/00 Q1005 TEMPO 2000 BR▲ Up
2S2335ENGM▼ Dn
Q02134[LINK ACK]▲ Up
Q02134[LINK TEST]▼ Dn


AIRCRAFT HISTORY
FLIGHT DATE FLIGHT NO. ORIGIN DESTINATION ROUTE BLOCK TIME FLIGHT TIME FUEL USED (LB) PILOT
2020-09-24SAS35ESNU ESSA ESNU DEDIT SIPRI HMR ESSA1.20.95875BigSwede
2020-08-07SAS25ESNQ ESNU ESNQ TERPA KETEL ESNU10.86146BigSwede
2020-07-30SAS1044ESSA ESNQ ESSA SA551 SA564 SA709 SA710 SA855 LUMAX RESNA OSK RASEN REKMI OSKIR ITVAV VAGAS NQ704 NQ703 RW031.81.49293BigSwede
2020-06-27SAS414EKCH ESSA EKCH KEMAX NEXIL ROXEN DEKIK VEPIP BEDOS NEFYN MIKNA PELUP NILUG ESSA1.316605BigSwede
2020-02-20SAS1407ESSA EKCH 1.517235BigSwede
2020-01-24SAS1045ESNQ ESSA 1.81.47391BigSwede
2019-12-07SAS1207ENGM ESNQ 1.71.59123Douglas Morlan
2019-11-14SAS4431ENTC ENGM 2.5212569Kyle Rodgers
2019-11-14SAS4425ENSB ENTC 1.71.49089Kyle Rodgers
2019-11-14SAS4414ENTC ENSB 1.71.59499Kyle Rodgers
2019-11-14SAS4406ENGM ENTC 21.610589Kyle Rodgers